Strona główna
METAR-TAF:

METAR-TAF

Lotnisko :

Port lotniczy Gran Canaria

Gran Canaria, Hiszpania

Szerokość geograficzna: 27-56N, Długość geograficzna: 015-23W, wysokość: 23 m

Aktualna obserwacja pogody

Raport powstał 29 minut temu, godzina 23:00 UTC
Wiatr 13 kt od północ
Temperatura 17°C
Wilgotność 63%
Ciśnienie 1020 hPa
Widzialność 10 km lub więcej
Mało chmury na wysokości 3000 ft
Przerywane chmury na wysokości 5000 ft

METAR: GCLP 192300Z 01013KT 9999 FEW030 BKN050 17/10 Q1020 NOSIG

czas: 23:29 (23:29 UTC)

Prognoza

Raport powstał 3 godziny i 29 minut temu, godzina 20:00 UTC
Prognoza ważna od 19 godzina 21 UTC do 20 godzina 21 UTC
Wiatr 20 kt od północ
Widzialność 10 km lub więcej
Przerywane chmury na wysokości 3500 ft
Stopniowe zmiany
od 19 godzina 21 UTC do 19 godzina 23 UTC
Wiatr 10 kt od północno-północny zachód
Stopniowe zmiany
od 20 godzina 10 UTC do 20 godzina 12 UTC
Wiatr 8 kt od wschodnio-północny wschód

TAF: GCLP 192000Z 1921/2021 01020KT 9999 BKN035 TX21/2014Z TN15/2006Z BECMG 1921/1923 34010KT BECMG 2010/2012 06008KT

Obserwacja i prognoza pogody dla ponad 4000 lotnisk (raport METAR i TAF).

Dostępne stacje oznaczono żółtymi i czerwonymi punktami na mapie.

Najedź kursorem aby zobaczyć nazwę stacji.

Kliknij aby zobaczyć obserwacje i prognozy pogody.

Aby zmienić mapę: kliknij na zielony przycisk z czarnym krzyżykiem, aby powiększyć; na zielony przycisk z myślnikiem, aby pomniejszyć; na zielone strzałki, aby przejść do map sąsiednich.


METAR-TAF: